createdAt,value
2023-03-17T00:00:54.026Z,1001.33
2023-03-17T00:01:53.967Z,1001.34
2023-03-17T00:02:53.979Z,1001.34
2023-03-17T00:03:53.947Z,1001.36
2023-03-17T00:04:53.855Z,1001.33
2023-03-17T00:05:53.833Z,1001.37
2023-03-17T00:06:53.802Z,1001.36
2023-03-17T00:07:53.754Z,1001.37
2023-03-17T00:08:53.711Z,1001.40
2023-03-17T00:09:53.680Z,1001.38
2023-03-17T00:10:53.639Z,1001.44
2023-03-17T00:11:53.609Z,1001.41
2023-03-17T00:12:53.569Z,1001.37
2023-03-17T00:13:53.528Z,1001.42
2023-03-17T00:14:53.492Z,1001.38
2023-03-17T00:15:53.506Z,1001.43
2023-03-17T00:16:53.426Z,1001.44
2023-03-17T00:17:53.383Z,1001.45
2023-03-17T00:18:53.347Z,1001.47
2023-03-17T00:19:53.328Z,1001.48
2023-03-17T00:20:53.276Z,1001.49
2023-03-17T00:21:53.242Z,1001.52
2023-03-17T00:22:53.204Z,1001.53
2023-03-17T00:23:53.166Z,1001.54
2023-03-17T00:24:53.129Z,1001.52
2023-03-17T00:25:53.105Z,1001.52
2023-03-17T00:26:53.061Z,1001.57
2023-03-17T00:27:53.049Z,1001.64
2023-03-17T00:28:53.018Z,1001.65
2023-03-17T00:29:52.960Z,1001.67
2023-03-17T00:30:52.952Z,1001.71
2023-03-17T00:31:52.873Z,1001.68
2023-03-17T00:32:52.872Z,1001.68
2023-03-17T00:33:52.813Z,1001.76
2023-03-17T00:34:52.777Z,1001.79
2023-03-17T00:35:52.789Z,1001.82
2023-03-17T00:36:52.692Z,1001.84
2023-03-17T00:37:52.651Z,1001.82
2023-03-17T00:38:52.701Z,1001.85
2023-03-17T00:39:52.593Z,1001.86
2023-03-17T00:40:52.540Z,1001.87
2023-03-17T00:41:52.500Z,1001.89
2023-03-17T00:42:52.466Z,1001.93
2023-03-17T00:43:52.429Z,1001.89
2023-03-17T00:44:52.390Z,1001.91
2023-03-17T00:45:52.353Z,1001.88
2023-03-17T00:46:52.420Z,1001.85
2023-03-17T00:47:52.282Z,1001.83
2023-03-17T00:48:52.248Z,1001.81
2023-03-17T00:49:52.211Z,1001.80
2023-03-17T00:50:52.192Z,1001.80
2023-03-17T00:51:52.149Z,1001.82
2023-03-17T00:52:52.105Z,1001.81
2023-03-17T00:53:52.067Z,1001.76
2023-03-17T00:54:52.024Z,1001.73
2023-03-17T00:55:51.989Z,1001.76
2023-03-17T00:56:51.956Z,1001.70
2023-03-17T00:57:51.917Z,1001.69
2023-03-17T00:58:51.886Z,1001.71
2023-03-17T00:59:51.842Z,1001.70
2023-03-17T01:00:51.826Z,1001.69
2023-03-17T01:01:51.818Z,1001.68
2023-03-17T01:02:51.734Z,1001.71
2023-03-17T01:03:51.698Z,1001.64
2023-03-17T01:04:59.797Z,1001.65
2023-03-17T01:05:51.626Z,1001.64
2023-03-17T01:06:51.590Z,1001.66
2023-03-17T01:07:51.565Z,1001.60
2023-03-17T01:08:51.515Z,1001.55
2023-03-17T01:09:51.479Z,1001.54
2023-03-17T01:10:51.437Z,1001.44
2023-03-17T01:11:51.405Z,1001.43
2023-03-17T01:12:51.362Z,1001.39
2023-03-17T01:13:51.332Z,1001.34
2023-03-17T01:14:51.297Z,1001.38
2023-03-17T01:15:51.263Z,1001.40
2023-03-17T01:16:51.218Z,1001.34
2023-03-17T01:17:51.198Z,1001.37
2023-03-17T01:18:51.170Z,1001.39
2023-03-17T01:19:51.111Z,1001.39
2023-03-17T01:20:51.073Z,1001.33
2023-03-17T01:21:51.076Z,1001.31
2023-03-17T01:22:51.022Z,1001.27
2023-03-17T01:23:50.959Z,1001.22
2023-03-17T01:24:50.926Z,1001.20
2023-03-17T01:25:50.906Z,1001.23
2023-03-17T01:26:50.872Z,1001.27
2023-03-17T01:27:50.820Z,1001.23
2023-03-17T01:28:50.804Z,1001.24
2023-03-17T01:29:50.742Z,1001.20
2023-03-17T01:30:50.706Z,1001.10
2023-03-17T01:31:50.692Z,1001.04
2023-03-17T01:32:50.717Z,1001.01
2023-03-17T01:33:50.605Z,1000.92
2023-03-17T01:34:50.565Z,1000.87
2023-03-17T01:35:50.559Z,1000.83
2023-03-17T01:36:50.490Z,1000.77
2023-03-17T01:37:50.450Z,1000.75
2023-03-17T01:38:50.422Z,1000.75
2023-03-17T01:39:50.389Z,1000.83
2023-03-17T01:40:50.359Z,1000.89
2023-03-17T01:41:50.319Z,1000.91
2023-03-17T01:42:50.272Z,1000.96
2023-03-17T01:43:50.228Z,1000.98
2023-03-17T01:44:50.196Z,1001.02
2023-03-17T01:45:50.223Z,1001.00
2023-03-17T01:46:50.121Z,1000.98
2023-03-17T01:47:50.085Z,1000.95
2023-03-17T01:48:50.045Z,1000.95
2023-03-17T01:49:50.008Z,1000.93
2023-03-17T01:50:49.975Z,1000.89
2023-03-17T01:51:49.936Z,1000.90
2023-03-17T01:52:49.902Z,1000.87
2023-03-17T01:53:49.873Z,1000.81
2023-03-17T01:54:49.828Z,1000.75
2023-03-17T01:55:49.797Z,1000.74
2023-03-17T01:56:49.758Z,1000.71
2023-03-17T01:57:49.713Z,1000.62
2023-03-17T01:58:49.678Z,1000.66
2023-03-17T01:59:49.652Z,1000.62
2023-03-17T02:00:49.621Z,1000.62
2023-03-17T02:01:49.585Z,1000.62
2023-03-17T02:02:49.538Z,1000.58
2023-03-17T02:03:49.555Z,1000.61
2023-03-17T02:04:49.459Z,1000.63
2023-03-17T02:05:49.453Z,1000.66
2023-03-17T02:06:58.776Z,1000.69
2023-03-17T02:07:49.351Z,1000.71
2023-03-17T02:08:49.310Z,1000.70
2023-03-17T02:09:49.290Z,1000.70
2023-03-17T02:10:49.249Z,1000.74
2023-03-17T02:11:49.202Z,1000.71
2023-03-17T02:12:49.168Z,1000.77
2023-03-17T02:13:49.127Z,1000.76
2023-03-17T02:14:49.094Z,1000.79
2023-03-17T02:15:49.062Z,1000.76
2023-03-17T02:16:49.027Z,1000.69
2023-03-17T02:17:48.977Z,1000.65
2023-03-17T02:18:48.950Z,1000.65
2023-03-17T02:19:48.911Z,1000.55
2023-03-17T02:20:48.886Z,1000.53
2023-03-17T02:21:48.834Z,1000.51
2023-03-17T02:22:48.807Z,1000.53
2023-03-17T02:23:48.757Z,1000.52
2023-03-17T02:24:48.722Z,1000.56
2023-03-17T02:25:48.687Z,1000.65
2023-03-17T02:26:48.651Z,1000.73
2023-03-17T02:27:48.623Z,1000.76
2023-03-17T02:28:48.586Z,1000.79
2023-03-17T02:29:48.542Z,1000.83
2023-03-17T02:30:48.541Z,1000.81
2023-03-17T02:31:48.462Z,1000.84
2023-03-17T02:32:48.458Z,1000.91
2023-03-17T02:33:48.388Z,1000.92
2023-03-17T02:34:48.358Z,1000.91
2023-03-17T02:35:48.339Z,1000.85
2023-03-17T02:36:48.314Z,1000.85
2023-03-17T02:37:48.252Z,1000.80
2023-03-17T02:38:48.210Z,1000.73
2023-03-17T02:39:48.168Z,1000.69
2023-03-17T02:40:48.139Z,1000.66
2023-03-17T02:41:48.098Z,1000.69
2023-03-17T02:42:48.110Z,1000.63
2023-03-17T02:43:48.030Z,1000.54
2023-03-17T02:44:48.013Z,1000.61
2023-03-17T02:45:47.970Z,1000.63
2023-03-17T02:46:47.926Z,1000.63
2023-03-17T02:47:47.888Z,1000.64
2023-03-17T02:48:47.842Z,1000.64
2023-03-17T02:49:47.810Z,1000.64
2023-03-17T02:50:47.778Z,1000.67
2023-03-17T02:51:47.757Z,1000.64
2023-03-17T02:52:47.695Z,1000.62
2023-03-17T02:53:47.690Z,1000.59
2023-03-17T02:54:47.620Z,1000.59
2023-03-17T02:55:47.583Z,1000.65
2023-03-17T02:56:47.550Z,1000.64
2023-03-17T02:57:47.508Z,1000.59
2023-03-17T02:58:47.482Z,1000.60
2023-03-17T02:59:47.436Z,1000.61
2023-03-17T03:00:47.404Z,1000.61
2023-03-17T03:01:47.386Z,1000.54
2023-03-17T03:02:47.396Z,1000.57
2023-03-17T03:03:47.290Z,1000.61
2023-03-17T03:04:47.251Z,1000.61
2023-03-17T03:05:47.214Z,1000.66
2023-03-17T03:06:47.183Z,1000.67
2023-03-17T03:07:47.147Z,1000.72
2023-03-17T03:08:47.114Z,1000.70
2023-03-17T03:09:47.066Z,1000.69
2023-03-17T03:10:47.030Z,1000.65
2023-03-17T03:11:46.992Z,1000.65
2023-03-17T03:12:46.955Z,1000.67
2023-03-17T03:13:46.919Z,1000.66
2023-03-17T03:14:46.891Z,1000.68
2023-03-17T03:15:46.891Z,1000.65
2023-03-17T03:16:46.805Z,1000.63
2023-03-17T03:17:46.775Z,1000.59
2023-03-17T03:18:46.737Z,1000.53
2023-03-17T03:19:46.698Z,1000.55
2023-03-17T03:20:46.666Z,1000.57
2023-03-17T03:21:46.618Z,1000.58
2023-03-17T03:22:46.594Z,1000.55
2023-03-17T03:23:46.546Z,1000.57
2023-03-17T03:24:46.513Z,1000.53
2023-03-17T03:25:46.470Z,1000.50
2023-03-17T03:26:46.438Z,1000.50
2023-03-17T03:27:46.409Z,1000.53
2023-03-17T03:28:46.358Z,1000.55
2023-03-17T03:29:46.337Z,1000.55
2023-03-17T03:30:46.328Z,1000.51
2023-03-17T03:31:46.246Z,1000.48
2023-03-17T03:32:46.264Z,1000.49
2023-03-17T03:33:46.187Z,1000.47
2023-03-17T03:34:46.142Z,1000.46
2023-03-17T03:35:46.124Z,1000.44
2023-03-17T03:36:46.068Z,1000.43
2023-03-17T03:37:46.053Z,1000.42
2023-03-17T03:38:45.998Z,1000.38
2023-03-17T03:39:45.954Z,1000.39
2023-03-17T03:40:45.916Z,1000.36
2023-03-17T03:41:45.877Z,1000.39
2023-03-17T03:42:45.847Z,1000.39
2023-03-17T03:43:45.806Z,1000.43
2023-03-17T03:44:45.763Z,1000.48
2023-03-17T03:45:45.738Z,1000.54
2023-03-17T03:46:45.841Z,1000.62
2023-03-17T03:47:45.662Z,1000.61
2023-03-17T03:48:45.618Z,1000.66
2023-03-17T03:49:45.582Z,1000.64
2023-03-17T03:50:45.540Z,1000.62
2023-03-17T03:51:45.512Z,1000.64
2023-03-17T03:52:45.476Z,1000.63
2023-03-17T03:53:45.443Z,1000.62
2023-03-17T03:54:45.399Z,1000.65
2023-03-17T03:55:45.350Z,1000.61
2023-03-17T03:56:45.314Z,1000.60
2023-03-17T03:57:45.279Z,1000.57
2023-03-17T03:58:45.242Z,1000.55
2023-03-17T03:59:45.209Z,1000.55
2023-03-17T04:00:45.176Z,1000.59
2023-03-17T04:01:45.132Z,1000.55
2023-03-17T04:02:45.207Z,1000.54
2023-03-17T04:03:45.053Z,1000.56
2023-03-17T04:04:45.028Z,1000.58
2023-03-17T04:05:44.983Z,1000.61
2023-03-17T04:06:44.942Z,1000.63
2023-03-17T04:07:44.911Z,1000.67
2023-03-17T04:08:44.883Z,1000.70
2023-03-17T04:09:44.830Z,1000.66
2023-03-17T04:10:44.797Z,1000.66
2023-03-17T04:11:44.759Z,1000.61
2023-03-17T04:12:44.724Z,1000.58
2023-03-17T04:13:44.680Z,1000.56
2023-03-17T04:14:44.644Z,1000.53
2023-03-17T04:15:44.608Z,1000.49
2023-03-17T04:16:44.574Z,1000.48
2023-03-17T04:17:44.535Z,1000.52
2023-03-17T04:18:44.642Z,1000.51
2023-03-17T04:19:44.459Z,1000.59
2023-03-17T04:20:44.423Z,1000.64
2023-03-17T04:21:44.410Z,1000.65
2023-03-17T04:22:44.354Z,1000.61
2023-03-17T04:23:44.320Z,1000.61
2023-03-17T04:24:44.274Z,1000.57
2023-03-17T04:25:44.233Z,1000.63
2023-03-17T04:26:44.202Z,1000.63
2023-03-17T04:27:44.170Z,1000.62
2023-03-17T04:28:44.125Z,1000.63
2023-03-17T04:29:44.084Z,1000.58
2023-03-17T04:30:44.050Z,1000.54
2023-03-17T04:31:44.092Z,1000.51
2023-03-17T04:32:44.030Z,1000.47
2023-03-17T04:33:43.940Z,1000.46
2023-03-17T04:34:43.908Z,1000.43
2023-03-17T04:35:43.920Z,1000.41
2023-03-17T04:36:43.825Z,1000.46
2023-03-17T04:37:43.787Z,1000.53
2023-03-17T04:38:43.756Z,1000.58
2023-03-17T04:39:43.717Z,1000.63
2023-03-17T04:40:43.678Z,1000.63
2023-03-17T04:41:43.650Z,1000.59
2023-03-17T04:42:43.597Z,1000.59
2023-03-17T04:43:43.577Z,1000.52
2023-03-17T04:44:43.527Z,1000.53
2023-03-17T04:45:43.527Z,1000.55
2023-03-17T04:46:43.449Z,1000.47
2023-03-17T04:47:43.413Z,1000.47
2023-03-17T04:48:43.381Z,1000.43
2023-03-17T04:49:43.336Z,1000.40
2023-03-17T04:50:43.312Z,1000.36
2023-03-17T04:51:43.276Z,1000.35
2023-03-17T04:52:43.229Z,1000.38
2023-03-17T04:53:43.188Z,1000.42
2023-03-17T04:54:43.159Z,1000.44
2023-03-17T04:55:43.119Z,1000.45
2023-03-17T04:56:43.081Z,1000.52
2023-03-17T04:57:43.043Z,1000.54
2023-03-17T04:58:43.008Z,1000.48
2023-03-17T04:59:42.976Z,1000.49
2023-03-17T05:00:43.001Z,1000.48
2023-03-17T05:01:42.894Z,1000.44
2023-03-17T05:02:42.941Z,1000.43
2023-03-17T05:03:42.816Z,1000.47
2023-03-17T05:04:42.788Z,1000.50
2023-03-17T05:05:42.753Z,1000.48
2023-03-17T05:06:42.788Z,1000.50
2023-03-17T05:07:42.672Z,1000.53
2023-03-17T05:08:42.645Z,1000.49
2023-03-17T05:09:42.624Z,1000.54
2023-03-17T05:10:42.631Z,1000.52
2023-03-17T05:11:42.526Z,1000.53
2023-03-17T05:12:42.479Z,1000.54
2023-03-17T05:13:42.448Z,1000.54
2023-03-17T05:14:42.410Z,1000.55
2023-03-17T05:15:42.374Z,1000.54
2023-03-17T05:16:42.387Z,1000.53
2023-03-17T05:17:42.296Z,1000.53
2023-03-17T05:18:42.260Z,1000.55
2023-03-17T05:19:42.223Z,1000.56
2023-03-17T05:20:42.184Z,1000.58
2023-03-17T05:21:42.142Z,1000.58
2023-03-17T05:22:42.117Z,1000.59
2023-03-17T05:23:42.072Z,1000.57
2023-03-17T05:24:42.046Z,1000.54
2023-03-17T05:25:41.998Z,1000.50
2023-03-17T05:26:41.963Z,1000.49
2023-03-17T05:27:41.927Z,1000.50
2023-03-17T05:28:41.884Z,1000.49
2023-03-17T05:29:41.846Z,1000.48
2023-03-17T05:30:41.820Z,1000.48
2023-03-17T05:31:41.775Z,1000.49
2023-03-17T05:32:41.768Z,1000.48
2023-03-17T05:33:41.708Z,1000.47
2023-03-17T05:34:41.664Z,1000.49
2023-03-17T05:35:41.662Z,1000.48
2023-03-17T05:36:41.587Z,1000.48
2023-03-17T05:37:41.551Z,1000.46
2023-03-17T05:38:41.511Z,1000.45
2023-03-17T05:39:41.476Z,1000.51
2023-03-17T05:40:41.444Z,1000.47
2023-03-17T05:41:41.398Z,1000.48
2023-03-17T05:42:41.364Z,1000.45
2023-03-17T05:43:41.365Z,1000.45
2023-03-17T05:44:41.289Z,1000.44
2023-03-17T05:45:41.330Z,1000.45
2023-03-17T05:46:41.242Z,1000.46
2023-03-17T05:47:41.191Z,1000.48
2023-03-17T05:48:41.139Z,1000.48
2023-03-17T05:49:41.103Z,1000.50
2023-03-17T05:50:41.062Z,1000.46
2023-03-17T05:51:41.028Z,1000.43
2023-03-17T05:52:40.990Z,1000.44
2023-03-17T05:53:40.971Z,1000.44
2023-03-17T05:54:40.923Z,1000.46
2023-03-17T05:55:40.912Z,1000.44
2023-03-17T05:56:40.845Z,1000.45
2023-03-17T05:57:40.806Z,1000.50
2023-03-17T05:58:40.770Z,1000.49
2023-03-17T05:59:40.733Z,1000.51
2023-03-17T06:00:40.691Z,1000.48
2023-03-17T06:01:40.656Z,1000.49
2023-03-17T06:02:40.694Z,1000.49
2023-03-17T06:03:40.608Z,1000.48
2023-03-17T06:04:40.544Z,1000.50
2023-03-17T06:05:40.512Z,1000.49
2023-03-17T06:06:40.479Z,1000.52
2023-03-17T06:07:51.742Z,1000.52
2023-03-17T06:08:40.404Z,1000.52
2023-03-17T06:09:40.357Z,1000.51
2023-03-17T06:10:40.334Z,1000.52
2023-03-17T06:11:40.285Z,1000.55
2023-03-17T06:12:40.247Z,1000.54
2023-03-17T06:13:40.210Z,1000.50
2023-03-17T06:14:40.171Z,1000.52
2023-03-17T06:15:40.183Z,1000.48
2023-03-17T06:16:40.107Z,1000.49
2023-03-17T06:17:40.064Z,1000.47
2023-03-17T06:18:40.031Z,1000.46
2023-03-17T06:19:40.004Z,1000.42
2023-03-17T06:20:39.956Z,1000.44
2023-03-17T06:21:39.911Z,1000.42
2023-03-17T06:22:51.698Z,1000.43
2023-03-17T06:23:39.840Z,1000.45
2023-03-17T06:24:39.808Z,1000.41
2023-03-17T06:25:39.779Z,1000.44
2023-03-17T06:26:39.739Z,1000.39
2023-03-17T06:27:39.690Z,1000.37
2023-03-17T06:28:39.652Z,1000.30
2023-03-17T06:29:39.620Z,1000.33
2023-03-17T06:30:40.852Z,1000.32
2023-03-17T06:31:39.576Z,1000.30
2023-03-17T06:32:39.534Z,1000.32
2023-03-17T06:33:39.464Z,1000.29
2023-03-17T06:34:39.426Z,1000.29
2023-03-17T06:35:39.418Z,1000.32
2023-03-17T06:36:39.358Z,1000.29
2023-03-17T06:37:39.320Z,1000.28
2023-03-17T06:38:39.293Z,1000.29
2023-03-17T06:39:39.246Z,1000.29
2023-03-17T06:40:39.211Z,1000.31
2023-03-17T06:41:39.181Z,1000.35
2023-03-17T06:42:39.134Z,1000.35
2023-03-17T06:43:39.097Z,1000.35
2023-03-17T06:44:39.063Z,1000.34
2023-03-17T06:45:39.024Z,1000.36
2023-03-17T06:46:39.027Z,1000.39
2023-03-17T06:47:38.962Z,1000.41
2023-03-17T06:48:38.908Z,1000.44
2023-03-17T06:49:38.877Z,1000.43
2023-03-17T06:50:38.846Z,1000.42
2023-03-17T06:51:38.801Z,1000.39
2023-03-17T06:52:38.769Z,1000.42
2023-03-17T06:53:38.729Z,1000.43
2023-03-17T06:54:38.707Z,1000.41
2023-03-17T06:55:38.660Z,1000.42
2023-03-17T06:56:38.613Z,1000.43
2023-03-17T06:57:38.588Z,1000.44
2023-03-17T06:58:38.545Z,1000.43
2023-03-17T06:59:38.505Z,1000.47
2023-03-17T07:00:38.471Z,1000.51
2023-03-17T07:01:38.513Z,1000.50
2023-03-17T07:02:38.396Z,1000.55
2023-03-17T07:03:38.619Z,1000.48
2023-03-17T07:04:38.398Z,1000.50
2023-03-17T07:05:38.284Z,1000.54
2023-03-17T07:06:38.246Z,1000.52
2023-03-17T07:07:38.211Z,1000.53
2023-03-17T07:08:38.172Z,1000.58
2023-03-17T07:09:38.138Z,1000.51
2023-03-17T07:10:38.114Z,1000.54
2023-03-17T07:11:38.066Z,1000.52
2023-03-17T07:12:38.020Z,1000.56
2023-03-17T07:13:37.998Z,1000.47
2023-03-17T07:14:37.954Z,1000.43
2023-03-17T07:15:37.915Z,1000.42
2023-03-17T07:16:37.976Z,1000.39
2023-03-17T07:17:37.840Z,1000.41
2023-03-17T07:18:37.805Z,1000.40
2023-03-17T07:19:37.771Z,1000.42
2023-03-17T07:20:37.759Z,1000.43
2023-03-17T07:21:37.710Z,1000.39
2023-03-17T07:22:37.712Z,1000.41
2023-03-17T07:23:37.642Z,1000.42
2023-03-17T07:24:37.599Z,1000.40
2023-03-17T07:25:37.556Z,1000.38
2023-03-17T07:26:37.538Z,1000.40
2023-03-17T07:27:37.496Z,1000.38
2023-03-17T07:28:37.480Z,1000.37
2023-03-17T07:29:37.439Z,1000.37
2023-03-17T07:30:37.384Z,1000.34
2023-03-17T07:31:37.414Z,1000.34
2023-03-17T07:32:37.333Z,1000.31
2023-03-17T07:33:37.266Z,1000.27
2023-03-17T07:34:37.240Z,1000.31
2023-03-17T07:35:37.243Z,1000.32
2023-03-17T07:36:37.149Z,1000.33
2023-03-17T07:37:37.118Z,1000.33
2023-03-17T07:38:37.082Z,1000.34
2023-03-17T07:39:37.034Z,1000.35
2023-03-17T07:40:37.003Z,1000.37
2023-03-17T07:41:36.966Z,1000.40
2023-03-17T07:42:36.937Z,1000.42
2023-03-17T07:43:36.908Z,1000.44
2023-03-17T07:44:36.854Z,1000.45
2023-03-17T07:45:36.819Z,1000.41
2023-03-17T07:46:36.811Z,1000.46
2023-03-17T07:47:36.768Z,1000.45
2023-03-17T07:48:36.710Z,1000.43
2023-03-17T07:49:41.797Z,1000.45
2023-03-17T07:50:36.640Z,1000.46
2023-03-17T07:51:36.605Z,1000.46
2023-03-17T07:52:36.579Z,1000.44
2023-03-17T07:53:36.529Z,1000.42
2023-03-17T07:54:36.493Z,1000.40
2023-03-17T07:55:36.453Z,1000.39
2023-03-17T07:56:36.420Z,1000.36
2023-03-17T07:57:36.408Z,1000.41
2023-03-17T07:58:36.354Z,1000.42
2023-03-17T07:59:36.328Z,1000.46
2023-03-17T08:00:36.590Z,1000.49
2023-03-17T08:01:36.309Z,1000.48
2023-03-17T08:02:36.338Z,1000.52
2023-03-17T08:03:36.228Z,1000.51
2023-03-17T08:04:36.163Z,1000.49
2023-03-17T08:05:36.115Z,1000.49
2023-03-17T08:06:36.075Z,1000.51
2023-03-17T08:07:36.071Z,1000.51
2023-03-17T08:08:36.022Z,1000.46
2023-03-17T08:09:35.965Z,1000.43
2023-03-17T08:10:36.221Z,1000.42
2023-03-17T08:11:35.893Z,1000.39
2023-03-17T08:12:35.863Z,1000.41
2023-03-17T08:13:35.846Z,1000.42
2023-03-17T08:14:35.782Z,1000.39
2023-03-17T08:15:35.780Z,1000.42
2023-03-17T08:16:35.730Z,1000.39
2023-03-17T08:17:35.674Z,1000.41
2023-03-17T08:18:35.637Z,1000.39
2023-03-17T08:19:35.597Z,1000.46
2023-03-17T08:20:35.721Z,1000.46
2023-03-17T08:21:35.583Z,1000.51
2023-03-17T08:22:35.520Z,1000.57
2023-03-17T08:23:35.471Z,1000.57
2023-03-17T08:24:35.478Z,1000.56
2023-03-17T08:25:35.408Z,1000.62
2023-03-17T08:26:35.363Z,1000.56
2023-03-17T08:27:35.342Z,1000.57
2023-03-17T08:28:35.283Z,1000.54
2023-03-17T08:29:35.298Z,1000.57
2023-03-17T08:30:35.792Z,1000.58
2023-03-17T08:31:35.245Z,1000.53
2023-03-17T08:32:35.187Z,1000.52
2023-03-17T08:33:35.120Z,1000.51
2023-03-17T08:34:35.070Z,1000.52
2023-03-17T08:35:35.190Z,1000.50
2023-03-17T08:36:35.011Z,1000.50
2023-03-17T08:37:34.977Z,1000.48
2023-03-17T08:38:34.967Z,1000.47
2023-03-17T08:39:34.920Z,1000.48
2023-03-17T08:40:34.992Z,1000.46
2023-03-17T08:41:34.833Z,1000.42
2023-03-17T08:42:34.794Z,1000.39
2023-03-17T08:43:34.758Z,1000.35
2023-03-17T08:44:34.722Z,1000.37
2023-03-17T08:45:34.702Z,1000.33
2023-03-17T08:46:34.718Z,1000.39
2023-03-17T08:47:34.627Z,1000.35
2023-03-17T08:48:34.585Z,1000.35
2023-03-17T08:49:34.583Z,1000.33
2023-03-17T08:50:34.826Z,1000.34
2023-03-17T08:51:34.492Z,1000.32
2023-03-17T08:52:34.465Z,1000.28
2023-03-17T08:53:34.412Z,1000.25
2023-03-17T08:54:34.372Z,1000.29
2023-03-17T08:55:34.353Z,1000.27
2023-03-17T08:56:34.311Z,1000.29
2023-03-17T08:57:34.275Z,1000.25
2023-03-17T08:58:34.239Z,1000.28
2023-03-17T08:59:34.221Z,1000.33
2023-03-17T09:00:34.173Z,1000.33
2023-03-17T09:01:34.198Z,1000.38
2023-03-17T09:02:34.147Z,1000.36
2023-03-17T09:03:34.108Z,1000.37
2023-03-17T09:04:34.049Z,1000.33
2023-03-17T09:05:36.236Z,1000.38
2023-03-17T09:06:33.977Z,1000.40
2023-03-17T09:07:34.119Z,1000.47
2023-03-17T09:08:33.899Z,1000.53
2023-03-17T09:09:33.870Z,1000.58
2023-03-17T09:10:34.155Z,1000.55
2023-03-17T09:11:33.804Z,1000.55
2023-03-17T09:12:34.282Z,1000.56
2023-03-17T09:13:33.727Z,1000.53
2023-03-17T09:14:42.841Z,1000.52
2023-03-17T09:15:33.916Z,1000.49
2023-03-17T09:16:33.691Z,1000.51
2023-03-17T09:17:33.608Z,1000.48
2023-03-17T09:18:33.574Z,1000.46
2023-03-17T09:19:33.529Z,1000.46
2023-03-17T09:20:33.931Z,1000.45
2023-03-17T09:21:33.459Z,1000.49
2023-03-17T09:22:33.440Z,1000.47
2023-03-17T09:23:33.389Z,1000.41
2023-03-17T09:24:33.356Z,1000.41
2023-03-17T09:25:33.315Z,1000.33
2023-03-17T09:26:33.297Z,1000.30
2023-03-17T09:27:33.255Z,1000.31
2023-03-17T09:28:33.222Z,1000.28
2023-03-17T09:29:33.181Z,1000.26
2023-03-17T09:30:33.535Z,1000.34
2023-03-17T09:31:33.219Z,1000.35
2023-03-17T09:32:33.114Z,1000.36
2023-03-17T09:33:33.061Z,1000.40
2023-03-17T09:34:33.023Z,1000.37
2023-03-17T09:35:33.051Z,1000.35
2023-03-17T09:36:32.962Z,1000.38
2023-03-17T09:37:32.919Z,1000.39
2023-03-17T09:38:32.890Z,1000.36
2023-03-17T09:39:32.845Z,1000.41
2023-03-17T09:40:33.105Z,1000.45
2023-03-17T09:41:32.780Z,1000.47
2023-03-17T09:42:32.744Z,1000.46
2023-03-17T09:43:32.739Z,1000.45
2023-03-17T09:44:32.685Z,1000.46
2023-03-17T09:45:32.745Z,1000.46
2023-03-17T09:46:32.705Z,1000.44
2023-03-17T09:47:32.594Z,1000.45
2023-03-17T09:48:32.547Z,1000.41
2023-03-17T09:49:32.515Z,1000.43
2023-03-17T09:50:32.995Z,1000.42
2023-03-17T09:51:32.465Z,1000.47
2023-03-17T09:52:32.414Z,1000.46
2023-03-17T09:53:32.378Z,1000.46
2023-03-17T09:54:32.352Z,1000.41
2023-03-17T09:55:32.658Z,1000.38
2023-03-17T09:56:32.280Z,1000.38
2023-03-17T09:57:32.250Z,1000.38
2023-03-17T09:58:32.215Z,1000.38
2023-03-17T09:59:32.183Z,1000.40
2023-03-17T10:00:32.148Z,1000.42
2023-03-17T10:01:32.183Z,1000.39
2023-03-17T10:02:32.086Z,1000.47
2023-03-17T10:03:32.052Z,1000.52
2023-03-17T10:04:32.019Z,1000.54
2023-03-17T10:05:32.439Z,1000.53
2023-03-17T10:06:31.956Z,1000.50
2023-03-17T10:07:31.926Z,1000.52
2023-03-17T10:08:32.322Z,1000.55
2023-03-17T10:09:31.855Z,1000.59
2023-03-17T10:10:32.208Z,1000.58
2023-03-17T10:11:31.814Z,1000.62
2023-03-17T10:12:31.752Z,1000.66
2023-03-17T10:13:31.720Z,1000.65
2023-03-17T10:14:31.691Z,1000.61
2023-03-17T10:15:31.810Z,1000.57
2023-03-17T10:16:31.677Z,1000.57
2023-03-17T10:17:31.598Z,1000.55
2023-03-17T10:18:31.614Z,1000.51
2023-03-17T10:19:31.562Z,1000.52
2023-03-17T10:20:31.499Z,1000.49
2023-03-17T10:21:31.465Z,1000.55
2023-03-17T10:22:31.447Z,1000.53
2023-03-17T10:23:31.401Z,1000.56
2023-03-17T10:24:31.365Z,1000.54
2023-03-17T10:25:31.714Z,1000.55
2023-03-17T10:26:31.317Z,1000.55
2023-03-17T10:27:31.275Z,1000.53
2023-03-17T10:28:31.242Z,1000.49
2023-03-17T10:29:31.210Z,1000.49
2023-03-17T10:30:31.398Z,1000.47
2023-03-17T10:31:31.221Z,1000.48
2023-03-17T10:32:31.187Z,1000.38
2023-03-17T10:33:31.085Z,1000.38
2023-03-17T10:34:31.073Z,1000.42
2023-03-17T10:35:31.271Z,1000.42
2023-03-17T10:36:30.986Z,1000.35
2023-03-17T10:37:30.956Z,1000.37
2023-03-17T10:38:30.930Z,1000.30
2023-03-17T10:39:32.822Z,1000.29
2023-03-17T10:40:31.173Z,1000.30
2023-03-17T10:41:30.839Z,1000.30
2023-03-17T10:42:30.814Z,1000.23
2023-03-17T10:43:30.775Z,1000.24
2023-03-17T10:44:30.738Z,1000.27
2023-03-17T10:45:30.710Z,1000.25
2023-03-17T10:46:30.733Z,1000.19
2023-03-17T10:47:30.661Z,1000.18
2023-03-17T10:48:30.620Z,1000.14
2023-03-17T10:49:30.591Z,1000.17
2023-03-17T10:50:31.039Z,1000.14
2023-03-17T10:51:30.541Z,1000.12
2023-03-17T10:52:30.530Z,1000.07
2023-03-17T10:53:30.475Z,1000.09
2023-03-17T10:54:30.446Z,1000.10
2023-03-17T10:55:30.411Z,1000.15
2023-03-17T10:56:30.380Z,1000.13
2023-03-17T10:57:30.359Z,1000.16
2023-03-17T10:58:30.340Z,1000.12
2023-03-17T11:00:30.613Z,1000.14
2023-03-17T11:01:30.350Z,1000.21
2023-03-17T11:02:30.229Z,1000.15
2023-03-17T11:03:30.254Z,1000.18
2023-03-17T11:04:30.159Z,1000.20
2023-03-17T11:05:30.134Z,1000.20
2023-03-17T11:06:30.106Z,1000.21
2023-03-17T11:07:30.105Z,1000.17
2023-03-17T11:08:30.039Z,1000.17
2023-03-17T11:09:30.011Z,1000.13
2023-03-17T11:10:30.387Z,1000.15
2023-03-17T11:11:29.961Z,1000.15
2023-03-17T11:12:29.924Z,1000.11
2023-03-17T11:13:29.951Z,1000.15
2023-03-17T11:14:29.881Z,1000.16
2023-03-17T11:15:29.858Z,1000.11
2023-03-17T11:16:29.899Z,1000.07
2023-03-17T11:17:29.784Z,1000.04
2023-03-17T11:18:31.352Z,1000.04
2023-03-17T11:19:29.733Z,1000.11
2023-03-17T11:20:30.021Z,1000.08
2023-03-17T11:21:29.674Z,1000.05
2023-03-17T11:22:29.641Z,1000.04
2023-03-17T11:23:29.622Z,1000.06
2023-03-17T11:24:30.851Z,999.98
2023-03-17T11:25:29.560Z,999.99
2023-03-17T11:26:29.532Z,999.98
2023-03-17T11:27:29.514Z,999.99
2023-03-17T11:28:29.481Z,999.96
2023-03-17T11:29:29.448Z,999.93
2023-03-17T11:30:29.808Z,999.96
2023-03-17T11:31:29.430Z,999.95
2023-03-17T11:32:29.441Z,999.96
2023-03-17T11:33:29.328Z,999.97
2023-03-17T11:34:29.296Z,999.98
2023-03-17T11:35:29.281Z,999.99
2023-03-17T11:36:29.246Z,999.98
2023-03-17T11:37:29.219Z,999.95
2023-03-17T11:38:29.202Z,999.91
2023-03-17T11:39:29.152Z,999.89
2023-03-17T11:40:29.388Z,999.89
2023-03-17T11:41:29.107Z,999.86
2023-03-17T11:42:29.115Z,999.85
2023-03-17T11:43:29.038Z,999.87
2023-03-17T11:44:29.015Z,999.80
2023-03-17T11:45:28.984Z,999.77
2023-03-17T11:46:29.003Z,999.80
2023-03-17T11:47:28.932Z,999.79
2023-03-17T11:48:28.910Z,999.81
2023-03-17T11:49:28.872Z,999.83
2023-03-17T11:50:28.892Z,999.75
2023-03-17T11:51:28.823Z,999.71
2023-03-17T11:52:28.794Z,999.72
2023-03-17T11:53:28.754Z,999.67
2023-03-17T11:54:28.727Z,999.69
2023-03-17T11:55:28.702Z,999.70
2023-03-17T11:56:28.668Z,999.75
2023-03-17T11:57:28.649Z,999.80
2023-03-17T11:58:28.621Z,999.82
2023-03-17T11:59:28.595Z,999.81
2023-03-17T12:00:28.600Z,999.80
2023-03-17T12:01:28.548Z,999.83
2023-03-17T12:02:28.516Z,999.85
2023-03-17T12:03:28.543Z,999.89
2023-03-17T12:04:28.453Z,999.89
2023-03-17T12:05:28.412Z,999.89
2023-03-17T12:06:28.384Z,999.87
2023-03-17T12:07:28.354Z,999.89
2023-03-17T12:08:28.322Z,999.89